Time;durP1;ratioP1;P1;durP2;ratioP2;P2;SDS_P1;SDS_P2;PMS_P1;PMS_P2;Temp;Humidity;BMP_temperature;BMP_pressure;BME280_temperature;BME280_humidity;BME280_pressure;Samples;Min_cycle;Max_cycle;Signal;HPM_P1;HPM_P2
2021/12/21 00:00:26;;;;;;;13.93;5.80;;;-1.20;99.90;;;;;;4985590;28;20048;-72
2021/12/21 00:02:53;;;;;;;14.48;6.57;;;-1.20;99.90;;;;;;4986008;28;20121;-72
2021/12/21 00:05:21;;;;;;;11.65;5.15;;;-1.20;99.90;;;;;;4986136;28;20400;-72
2021/12/21 00:07:49;;;;;;;11.23;5.18;;;-1.20;99.90;;;;;;4985437;28;20042;-72
2021/12/21 00:10:16;;;;;;;13.68;5.45;;;-1.20;99.90;;;;;;4985837;28;20390;-72
2021/12/21 00:13:00;;;;;;;9.88;5.18;;;-1.20;99.90;;;;;;4971193;28;20396;-72
2021/12/21 00:26:08;;;;;;;8.60;4.70;;;-1.30;99.90;;;;;;4985583;28;20168;-72
2021/12/21 00:28:41;;;;;;;8.15;3.97;;;-1.30;99.90;;;;;;4967615;28;20499;-72
2021/12/21 00:31:07;;;;;;;7.95;4.30;;;-1.30;99.90;;;;;;5001131;28;20528;-72
2021/12/21 00:33:32;;;;;;;9.48;4.47;;;-1.30;99.90;;;;;;4984344;28;20041;-72
2021/12/21 00:35:58;;;;;;;7.82;4.55;;;-1.30;99.90;;;;;;4984953;28;20038;-72
2021/12/21 00:38:24;;;;;;;8.50;4.60;;;-1.30;99.90;;;;;;4986598;28;20082;-72
2021/12/21 00:40:50;;;;;;;9.15;4.57;;;-1.30;99.90;;;;;;4984239;28;20053;-72
2021/12/21 00:43:16;;;;;;;14.18;5.22;;;-1.30;99.90;;;;;;4985506;28;20050;-72
2021/12/21 00:45:41;;;;;;;8.77;5.10;;;-1.30;99.90;;;;;;4986319;28;20180;-72
2021/12/21 00:48:07;;;;;;;11.70;4.65;;;-1.30;99.90;;;;;;4983973;28;20129;-72
2021/12/21 00:50:33;;;;;;;10.73;5.15;;;-1.40;99.90;;;;;;4983956;28;20053;-72
2021/12/21 00:52:58;;;;;;;12.38;5.38;;;-1.40;99.90;;;;;;4981305;28;20511;-72
2021/12/21 00:55:25;;;;;;;11.63;5.97;;;-1.40;99.90;;;;;;4985232;28;20049;-71
2021/12/21 00:57:52;;;;;;;13.63;5.57;;;-1.40;99.90;;;;;;4979126;28;20065;-71
2021/12/21 01:00:21;;;;;;;5.35;2.35;;;-1.40;99.90;;;;;;4987042;28;20054;-71
2021/12/21 01:02:47;;;;;;;5.22;3.05;;;-1.40;99.90;;;;;;4983719;28;20381;-71
2021/12/21 01:05:30;;;;;;;5.97;3.58;;;-1.50;99.90;;;;;;4984973;28;20046;-71
2021/12/21 01:07:59;;;;;;;5.03;2.85;;;-1.50;99.90;;;;;;4985876;28;20030;-71
2021/12/21 01:10:40;;;;;;;3.25;2.90;;;-1.60;99.90;;;;;;4982989;28;20529;-71
2021/12/21 01:18:07;;;;;;;4.18;3.03;;;-1.70;99.90;;;;;;4982567;28;20082;-71
2021/12/21 01:23:30;;;;;;;14.57;3.45;;;-1.70;99.90;;;;;;4985314;28;20046;-71
2021/12/21 01:26:10;;;;;;;5.55;2.60;;;-1.70;99.90;;;;;;4985762;28;20042;-71
2021/12/21 01:28:50;;;;;;;3.40;2.70;;;-1.70;99.90;;;;;;5001719;28;20042;-71
2021/12/21 01:34:04;;;;;;;4.53;2.80;;;-1.70;99.90;;;;;;4985637;28;20412;-71
2021/12/21 01:36:36;;;;;;;4.35;2.90;;;-1.70;99.90;;;;;;4983431;28;20039;-71
2021/12/21 01:39:14;;;;;;;3.88;2.85;;;-1.70;99.90;;;;;;4981315;28;20042;-71
2021/12/21 01:50:20;;;;;;;7.13;3.22;;;-1.60;99.90;;;;;;4982418;28;20050;-71
2021/12/21 01:52:46;;;;;;;8.15;4.10;;;-1.70;99.90;;;;;;4985263;28;20065;-71
2021/12/21 01:55:11;;;;;;;12.30;5.45;;;-1.70;99.90;;;;;;4985941;28;20505;-71
2021/12/21 01:57:37;;;;;;;9.73;5.57;;;-1.60;99.90;;;;;;4983423;28;20034;-71
2021/12/21 02:00:06;;;;;;;10.68;4.60;;;-1.70;99.90;;;;;;4985462;28;20121;-71
2021/12/21 02:02:32;;;;;;;6.68;4.15;;;-1.70;99.90;;;;;;4983577;28;20125;-71
2021/12/21 02:04:58;;;;;;;6.43;3.75;;;-1.70;99.90;;;;;;4985079;28;20046;-71
2021/12/21 02:07:24;;;;;;;7.32;4.30;;;-1.70;99.90;;;;;;4984903;28;20991;-71
2021/12/21 02:09:49;;;;;;;8.02;4.20;;;-1.60;99.90;;;;;;4988300;28;20093;-71
2021/12/21 02:12:18;;;;;;;9.65;4.32;;;-1.70;99.90;;;;;;4988777;28;20111;-71
2021/12/21 02:14:52;;;;;;;9.63;4.30;;;-1.70;99.90;;;;;;4987415;28;20053;-71
2021/12/21 02:20:20;;;;;;;12.65;6.25;;;-1.80;99.90;;;;;;4988790;28;20046;-71
2021/12/21 02:22:57;;;;;;;11.13;6.63;;;-1.80;99.90;;;;;;4986342;28;20038;-71
2021/12/21 02:27:59;;;;;;;13.13;6.03;;;-1.80;99.90;;;;;;4987825;28;20046;-71
2021/12/21 02:30:25;;;;;;;17.30;6.05;;;-1.80;99.90;;;;;;4989201;28;20540;-71
2021/12/21 02:32:52;;;;;;;10.85;5.15;;;-1.80;99.90;;;;;;4986936;28;20045;-71
2021/12/21 02:35:18;;;;;;;7.90;4.50;;;-1.90;99.90;;;;;;4987937;28;20042;-71
2021/12/21 02:37:44;;;;;;;9.85;4.93;;;-1.90;99.90;;;;;;4986177;28;20089;-71
2021/12/21 02:40:10;;;;;;;8.55;4.88;;;-2.00;99.90;;;;;;4988027;28;20061;-71
2021/12/21 02:42:36;;;;;;;12.48;4.43;;;-2.00;99.90;;;;;;4987505;28;20034;-71
2021/12/21 02:45:03;;;;;;;8.35;4.22;;;-2.00;99.90;;;;;;4989119;28;20237;-71
2021/12/21 02:47:28;;;;;;;6.65;4.38;;;-2.00;99.90;;;;;;4986659;28;20048;-71
2021/12/21 02:49:54;;;;;;;8.23;4.43;;;-2.00;99.90;;;;;;4986918;28;20034;-71
2021/12/21 02:52:20;;;;;;;13.55;5.13;;;-2.00;99.90;;;;;;4986800;28;20140;-71
2021/12/21 02:54:45;;;;;;;5.75;4.30;;;-2.00;99.90;;;;;;4984906;28;20045;-71
2021/12/21 02:57:11;;;;;;;6.65;4.50;;;-2.00;99.90;;;;;;4985846;28;20046;-71
2021/12/21 02:59:37;;;;;;;7.38;4.72;;;-2.10;99.90;;;;;;4970161;28;20049;-71
2021/12/21 03:02:02;;;;;;;6.28;4.35;;;-2.10;99.90;;;;;;4986209;28;20046;-71
2021/12/21 03:04:28;;;;;;;7.90;4.68;;;-2.20;99.90;;;;;;4969993;28;20125;-71
2021/12/21 03:12:09;;;;;;;10.23;4.93;;;-2.20;99.90;;;;;;4988394;28;20046;-71
2021/12/21 03:14:36;;;;;;;10.82;5.50;;;-2.20;99.90;;;;;;4983639;28;20112;-71
2021/12/21 03:17:03;;;;;;;8.80;5.28;;;-2.20;99.90;;;;;;4987314;28;20077;-71
2021/12/21 03:19:28;;;;;;;9.35;4.85;;;-2.20;99.90;;;;;;4989914;28;20038;-72
2021/12/21 03:21:54;;;;;;;11.43;5.32;;;-2.20;99.90;;;;;;4990715;28;20038;-71
2021/12/21 03:24:20;;;;;;;8.85;4.85;;;-2.20;99.90;;;;;;4972430;28;20054;-71
2021/12/21 03:26:46;;;;;;;8.32;5.18;;;-2.20;99.90;;;;;;4993009;28;20052;-71
2021/12/21 03:29:12;;;;;;;10.48;5.45;;;-2.20;99.90;;;;;;4976368;28;20046;-71
2021/12/21 03:31:38;;;;;;;11.10;5.00;;;-2.20;99.90;;;;;;4993450;28;20053;-71
2021/12/21 03:34:04;;;;;;;10.82;5.75;;;-2.20;99.90;;;;;;4988963;28;20073;-71
2021/12/21 03:36:30;;;;;;;10.35;5.30;;;-2.20;99.90;;;;;;5002651;28;20046;-71
2021/12/21 03:39:06;;;;;;;11.82;5.60;;;-2.20;99.90;;;;;;4986530;28;20046;-71
2021/12/21 03:41:33;;;;;;;11.75;5.43;;;-2.20;99.90;;;;;;4987544;28;20070;-71
2021/12/21 03:44:01;;;;;;;9.15;4.82;;;-2.20;99.90;;;;;;4986231;28;20053;-71
2021/12/21 03:46:29;;;;;;;9.73;4.80;;;-2.20;99.90;;;;;;4984849;28;20046;-72
2021/12/21 03:48:54;;;;;;;10.18;5.05;;;-2.20;99.90;;;;;;4985007;28;20038;-71
2021/12/21 03:51:20;;;;;;;7.53;5.00;;;-2.20;99.90;;;;;;4987061;28;21575;-71
2021/12/21 03:53:48;;;;;;;8.20;4.82;;;-2.20;99.90;;;;;;4986009;28;20039;-71
2021/12/21 03:58:55;;;;;;;8.70;5.28;;;-2.30;99.90;;;;;;4985888;28;20448;-71
2021/12/21 04:01:21;;;;;;;12.50;5.90;;;-2.30;99.90;;;;;;4987067;28;20039;-71
2021/12/21 04:03:47;;;;;;;7.72;5.47;;;-2.40;99.90;;;;;;4986404;28;20080;-71
2021/12/21 04:06:12;;;;;;;10.55;5.47;;;-2.30;99.90;;;;;;5001987;28;20509;-72
2021/12/21 04:08:38;;;;;;;11.25;6.07;;;-2.30;99.90;;;;;;4986462;28;20054;-71
2021/12/21 04:11:04;;;;;;;9.55;5.78;;;-2.30;99.90;;;;;;4971511;28;20046;-71
2021/12/21 04:13:30;;;;;;;10.13;5.50;;;-2.30;99.90;;;;;;4998565;28;20070;-71
2021/12/21 04:15:59;;;;;;;9.38;5.63;;;-2.30;99.90;;;;;;4986451;28;20030;-71
2021/12/21 04:18:25;;;;;;;9.90;5.35;;;-2.30;99.90;;;;;;4985828;28;20046;-71
2021/12/21 04:20:51;;;;;;;12.77;5.82;;;-2.30;99.90;;;;;;4986141;28;20073;-72
2021/12/21 04:23:17;;;;;;;12.38;5.97;;;-2.40;99.90;;;;;;4985519;28;20551;-71
2021/12/21 04:25:43;;;;;;;9.65;6.20;;;-2.40;99.90;;;;;;5002723;28;20034;-71
2021/12/21 04:28:09;;;;;;;16.13;6.82;;;-2.40;99.90;;;;;;4985955;28;20101;-71
2021/12/21 04:30:35;;;;;;;12.23;6.53;;;-2.40;99.90;;;;;;4985476;28;20504;-71
2021/12/21 04:33:00;;;;;;;11.75;6.68;;;-2.40;99.90;;;;;;4985535;28;20030;-72
2021/12/21 04:35:26;;;;;;;11.38;6.47;;;-2.40;99.90;;;;;;4985573;28;20038;-71
2021/12/21 04:37:58;;;;;;;10.82;6.63;;;-2.40;99.90;;;;;;4985029;28;20066;-71
2021/12/21 04:40:27;;;;;;;13.55;5.22;;;-2.40;99.90;;;;;;4986441;28;20058;-71
2021/12/21 04:42:52;;;;;;;13.35;6.40;;;-2.40;99.90;;;;;;4986971;28;20579;-71
2021/12/21 04:45:18;;;;;;;11.25;6.57;;;-2.40;99.90;;;;;;4984501;28;20054;-71
2021/12/21 04:47:44;;;;;;;10.95;6.40;;;-2.40;99.90;;;;;;4983947;28;20500;-71
2021/12/21 04:50:11;;;;;;;12.20;6.32;;;-2.40;99.90;;;;;;4984606;28;20034;-71
2021/12/21 04:52:36;;;;;;;15.95;6.38;;;-2.40;99.90;;;;;;4986186;28;20045;-71
2021/12/21 04:55:04;;;;;;;11.85;6.25;;;-2.40;99.90;;;;;;4984063;28;20034;-71
2021/12/21 04:57:30;;;;;;;13.98;6.97;;;-2.40;99.90;;;;;;4987366;28;20049;-71
2021/12/21 04:59:55;;;;;;;11.38;6.78;;;-2.40;99.90;;;;;;4983693;28;20050;-71
2021/12/21 05:02:21;;;;;;;12.23;6.18;;;-2.40;99.90;;;;;;4985440;28;20129;-71
2021/12/21 05:04:47;;;;;;;12.88;6.72;;;-2.50;99.90;;;;;;4983747;28;20073;-71
2021/12/21 05:07:16;;;;;;;13.68;6.78;;;-2.40;99.90;;;;;;4985518;28;20084;-71
2021/12/21 05:09:44;;;;;;;16.17;8.20;;;-2.40;99.90;;;;;;4984183;28;20034;-71
2021/12/21 05:12:13;;;;;;;14.23;8.02;;;-2.40;99.90;;;;;;4985426;28;20031;-71
2021/12/21 05:14:39;;;;;;;11.10;7.20;;;-2.40;99.90;;;;;;4984431;28;20072;-71
2021/12/21 05:17:05;;;;;;;14.63;6.55;;;-2.50;99.90;;;;;;4982908;28;20485;-71
2021/12/21 05:19:32;;;;;;;13.65;6.82;;;-2.50;99.90;;;;;;4983751;28;20044;-71
2021/12/21 05:21:57;;;;;;;14.25;7.10;;;-2.50;99.90;;;;;;4984468;28;20086;-71
2021/12/21 05:24:23;;;;;;;13.60;7.07;;;-2.50;99.90;;;;;;4982986;28;20070;-71
2021/12/21 05:26:49;;;;;;;18.27;8.63;;;-2.50;99.90;;;;;;4984179;28;20031;-71
2021/12/21 05:29:14;;;;;;;10.55;6.45;;;-2.50;99.90;;;;;;4983738;28;20042;-71
2021/12/21 05:31:40;;;;;;;18.70;7.25;;;-2.50;99.90;;;;;;4985082;28;20045;-71
2021/12/21 05:34:06;;;;;;;10.18;6.78;;;-2.50;99.90;;;;;;4985064;28;20108;-71
2021/12/21 05:36:31;;;;;;;12.18;7.00;;;-2.50;99.90;;;;;;4981562;28;20145;-71
2021/12/21 05:39:02;;;;;;;8.85;6.18;;;-2.50;99.90;;;;;;4985358;28;20128;-71
2021/12/21 05:41:40;;;;;;;12.90;5.65;;;-2.60;99.90;;;;;;4984242;28;20505;-71
2021/12/21 05:44:06;;;;;;;13.05;5.68;;;-2.60;99.90;;;;;;4985388;28;20041;-71
2021/12/21 05:46:31;;;;;;;12.77;5.45;;;-2.60;99.90;;;;;;4983669;28;20042;-71
2021/12/21 05:48:57;;;;;;;9.07;5.53;;;-2.60;99.90;;;;;;4982731;28;20057;-71
2021/12/21 05:51:23;;;;;;;12.88;6.05;;;-2.60;99.90;;;;;;4984594;28;20069;-71
2021/12/21 05:53:49;;;;;;;13.98;7.07;;;-2.60;99.90;;;;;;4970556;28;20110;-71
2021/12/21 05:56:15;;;;;;;12.52;6.28;;;-2.60;99.90;;;;;;4998598;28;20049;-71
2021/12/21 05:58:41;;;;;;;13.60;6.13;;;-2.60;99.90;;;;;;4985732;28;20389;-71
2021/12/21 06:01:07;;;;;;;10.48;6.22;;;-2.60;99.90;;;;;;4984064;28;20034;-71
2021/12/21 06:03:33;;;;;;;10.07;5.93;;;-2.60;99.90;;;;;;4984681;28;20035;-71
2021/12/21 06:05:58;;;;;;;12.95;6.20;;;-2.60;99.90;;;;;;4968331;28;20045;-71
2021/12/21 06:08:25;;;;;;;11.52;6.80;;;-2.60;99.90;;;;;;4984491;28;20038;-71
2021/12/21 06:10:53;;;;;;;12.50;5.75;;;-2.70;99.90;;;;;;5000471;28;20096;-71
2021/12/21 06:26:42;;;;;;;10.55;6.53;;;-2.80;99.90;;;;;;4983810;28;20100;-71
2021/12/21 06:29:08;;;;;;;13.75;7.32;;;-2.70;99.90;;;;;;4985017;28;20046;-71
2021/12/21 06:31:34;;;;;;;9.77;5.97;;;-2.70;99.90;;;;;;4983558;28;20035;-71
2021/12/21 06:34:01;;;;;;;9.10;6.22;;;-2.80;99.90;;;;;;4984465;28;20640;-71
2021/12/21 06:36:27;;;;;;;13.60;6.43;;;-2.80;99.90;;;;;;4984093;28;20054;-71
2021/12/21 06:38:53;;;;;;;9.07;5.85;;;-2.80;99.90;;;;;;4985275;28;20046;-71
2021/12/21 06:41:20;;;;;;;12.10;6.50;;;-2.80;99.90;;;;;;4998743;28;20046;-71
2021/12/21 06:43:46;;;;;;;13.48;6.68;;;-2.80;99.90;;;;;;4999290;28;20042;-71
2021/12/21 06:46:39;;;;;;;13.45;7.80;;;-2.80;99.90;;;;;;4968443;28;20041;-71
2021/12/21 06:51:50;;;;;;;14.00;6.85;;;-2.90;99.90;;;;;;4981461;28;20081;-71
2021/12/21 06:54:16;;;;;;;13.60;7.15;;;-2.90;99.90;;;;;;4989744;28;20038;-72
2021/12/21 06:56:42;;;;;;;14.55;6.05;;;-3.00;99.90;;;;;;4991272;28;20386;-72
2021/12/21 06:59:07;;;;;;;10.80;6.15;;;-3.00;99.90;;;;;;5007951;28;20100;-74
2021/12/21 07:01:36;;;;;;;8.48;5.57;;;-3.00;99.90;;;;;;4974915;28;20038;-71
2021/12/21 07:04:02;;;;;;;10.25;5.85;;;-3.00;99.90;;;;;;4989901;28;20081;-73
2021/12/21 07:06:27;;;;;;;10.30;5.72;;;-3.00;99.90;;;;;;4991085;28;20524;-73
2021/12/21 07:11:40;;;;;;;11.05;6.45;;;-3.00;99.90;;;;;;4992478;28;20096;-72
2021/12/21 07:19:36;;;;;;;11.57;6.10;;;-3.00;99.90;;;;;;5009954;28;20073;-73
2021/12/21 07:22:03;;;;;;;10.82;6.55;;;-3.00;99.90;;;;;;4991184;28;20066;-73
2021/12/21 07:24:28;;;;;;;15.07;6.65;;;-2.90;99.90;;;;;;4976381;28;20393;-72
2021/12/21 07:26:54;;;;;;;9.85;6.22;;;-2.90;99.90;;;;;;4992735;28;20054;-72
2021/12/21 07:29:20;;;;;;;9.32;6.30;;;-2.90;99.90;;;;;;4993278;28;20485;-75
2021/12/21 07:31:46;;;;;;;9.93;6.85;;;-2.90;99.90;;;;;;4978329;28;20042;-72
2021/12/21 07:34:12;;;;;;;12.57;7.05;;;-2.90;99.90;;;;;;4991285;28;20567;-74
2021/12/21 07:36:42;;;;;;;9.43;6.30;;;-3.00;99.90;;;;;;5007913;28;20519;-72
2021/12/21 07:39:10;;;;;;;11.15;6.80;;;-2.90;99.90;;;;;;5003736;28;20092;-73
2021/12/21 07:41:36;;;;;;;20.25;6.80;;;-3.00;99.90;;;;;;4991068;28;20034;-73
2021/12/21 07:44:02;;;;;;;12.23;6.15;;;-3.00;99.90;;;;;;4991601;28;20453;-73
2021/12/21 07:46:28;;;;;;;11.65;6.30;;;-3.00;99.90;;;;;;4989839;28;20038;-72
2021/12/21 07:48:54;;;;;;;13.25;7.32;;;-3.00;99.90;;;;;;5005155;28;20413;-73
2021/12/21 07:51:20;;;;;;;12.88;6.75;;;-3.00;99.90;;;;;;4988168;28;20408;-73
2021/12/21 07:53:47;;;;;;;13.68;6.88;;;-3.00;99.90;;;;;;4991250;28;20117;-73
2021/12/21 07:56:16;;;;;;;13.75;8.38;;;-3.00;99.90;;;;;;4996243;28;20030;-74
2021/12/21 07:58:43;;;;;;;11.30;6.72;;;-3.10;99.90;;;;;;4989492;28;20038;-74
2021/12/21 08:01:09;;;;;;;10.13;7.03;;;-3.00;99.90;;;;;;4980879;28;20709;-73
2021/12/21 08:03:35;;;;;;;15.32;8.15;;;-3.10;99.90;;;;;;4987978;28;20045;-72
2021/12/21 08:06:03;;;;;;;13.98;7.70;;;-3.00;99.90;;;;;;5007652;28;20042;-73
2021/12/21 08:08:30;;;;;;;10.43;6.80;;;-3.00;99.90;;;;;;4991746;28;20039;-73
2021/12/21 08:11:14;;;;;;;12.00;6.70;;;-3.00;99.90;;;;;;4982987;28;20042;-73
2021/12/21 08:13:42;;;;;;;12.18;6.30;;;-3.00;99.90;;;;;;4974164;28;20042;-72
2021/12/21 08:16:08;;;;;;;12.00;6.90;;;-3.00;99.90;;;;;;4970712;28;20477;-72
2021/12/21 08:18:34;;;;;;;12.27;7.28;;;-3.00;99.90;;;;;;4987523;28;20046;-72
2021/12/21 08:21:00;;;;;;;12.18;7.03;;;-3.00;99.90;;;;;;4988337;28;20452;-72
2021/12/21 08:23:26;;;;;;;12.15;7.28;;;-2.90;99.90;;;;;;4990756;28;20053;-72
2021/12/21 08:25:54;;;;;;;12.10;7.47;;;-2.90;99.90;;;;;;4987950;28;20069;-72
2021/12/21 08:28:20;;;;;;;17.98;7.50;;;-2.90;99.90;;;;;;4989089;28;20042;-73
2021/12/21 08:30:45;;;;;;;10.57;6.93;;;-2.90;99.90;;;;;;4987967;28;20038;-72
2021/12/21 08:33:11;;;;;;;13.05;7.35;;;-2.90;99.90;;;;;;4987430;28;20045;-73
2021/12/21 08:35:37;;;;;;;14.65;6.90;;;-2.90;99.90;;;;;;4997358;28;20042;-73
2021/12/21 08:38:07;;;;;;;13.90;7.78;;;-2.90;99.90;;;;;;4991081;28;20038;-72
2021/12/21 08:40:39;;;;;;;10.85;6.80;;;-2.90;99.90;;;;;;4988060;28;20050;-73
2021/12/21 08:43:11;;;;;;;17.45;8.60;;;-2.90;99.90;;;;;;4986129;28;20480;-73
2021/12/21 08:45:39;;;;;;;16.40;7.78;;;-2.80;99.90;;;;;;4980429;28;23247;-72
2021/12/21 08:48:05;;;;;;;17.95;8.18;;;-2.80;99.90;;;;;;5001102;28;20105;-71
2021/12/21 08:50:32;;;;;;;16.35;9.00;;;-2.80;99.90;;;;;;4983011;28;20038;-71
2021/12/21 08:52:58;;;;;;;16.45;9.82;;;-2.80;99.90;;;;;;5000004;28;20073;-72
2021/12/21 08:55:24;;;;;;;22.20;11.75;;;-2.80;99.90;;;;;;4981132;28;20042;-71
2021/12/21 08:57:50;;;;;;;20.88;12.43;;;-2.80;99.90;;;;;;4990324;28;20125;-71
2021/12/21 09:00:16;;;;;;;20.92;13.00;;;-2.70;99.90;;;;;;4981941;28;20050;-71
2021/12/21 09:02:42;;;;;;;20.40;13.15;;;-2.70;99.90;;;;;;4983875;28;20053;-72
2021/12/21 09:05:15;;;;;;;21.75;13.55;;;-2.70;99.90;;;;;;4968056;28;21983;-73
2021/12/21 09:07:48;;;;;;;23.15;15.18;;;-2.60;99.90;;;;;;4981007;28;20053;-73
2021/12/21 09:10:15;;;;;;;29.83;15.48;;;-2.60;99.90;;;;;;4987068;28;20130;-73
2021/12/21 09:12:42;;;;;;;28.05;16.25;;;-2.50;99.90;;;;;;4990149;28;20128;-73
2021/12/21 09:15:09;;;;;;;28.10;17.58;;;-2.50;99.90;;;;;;4989490;28;20035;-73
2021/12/21 09:17:36;;;;;;;30.88;17.83;;;-2.40;99.90;;;;;;4972704;28;20037;-73
2021/12/21 09:20:03;;;;;;;25.05;17.30;;;-2.30;99.90;;;;;;4989829;28;20034;-73
2021/12/21 09:22:29;;;;;;;26.75;17.10;;;-2.30;99.90;;;;;;4968163;28;20539;-73
2021/12/21 09:24:56;;;;;;;30.75;15.60;;;-2.30;99.90;;;;;;4988829;28;20038;-75
2021/12/21 09:27:21;;;;;;;26.75;17.48;;;-2.20;99.90;;;;;;4989444;28;20093;-73
2021/12/21 09:29:47;;;;;;;31.40;19.00;;;-2.10;99.90;;;;;;4974179;28;20132;-72
2021/12/21 09:32:15;;;;;;;29.10;19.08;;;-2.10;99.90;;;;;;4988828;28;20041;-72
2021/12/21 09:34:41;;;;;;;29.85;19.02;;;-2.00;99.90;;;;;;4970832;28;20512;-73
2021/12/21 09:37:14;;;;;;;37.92;22.42;;;-2.00;99.90;;;;;;4982032;28;20043;-73
2021/12/21 09:39:41;;;;;;;40.17;25.58;;;-1.90;99.90;;;;;;4983032;28;20076;-73
2021/12/21 09:42:06;;;;;;;43.92;27.27;;;-1.80;99.90;;;;;;4980256;28;20046;-72
2021/12/21 09:44:33;;;;;;;42.40;27.42;;;-1.80;99.90;;;;;;4964908;28;20046;-73
2021/12/21 09:46:59;;;;;;;46.95;28.55;;;-1.70;99.90;;;;;;4979652;28;20054;-73
2021/12/21 09:49:25;;;;;;;43.75;29.45;;;-1.60;99.90;;;;;;4988678;28;20053;-73
2021/12/21 09:51:51;;;;;;;42.78;28.23;;;-1.50;99.90;;;;;;4987349;28;20034;-73
2021/12/21 09:54:18;;;;;;;42.47;27.95;;;-1.40;99.90;;;;;;4989709;28;20156;-74
2021/12/21 09:56:44;;;;;;;44.67;28.77;;;-1.30;99.90;;;;;;4986250;28;20050;-74
2021/12/21 09:59:10;;;;;;;50.30;29.60;;;-1.20;99.90;;;;;;4999610;28;20793;-74
2021/12/21 10:01:36;;;;;;;44.67;29.38;;;-1.10;99.90;;;;;;4983154;28;20634;-74
2021/12/21 10:04:02;;;;;;;46.80;30.27;;;-1.00;99.90;;;;;;4989508;28;20042;-74
2021/12/21 10:06:27;;;;;;;45.28;29.08;;;-1.00;99.90;;;;;;4987211;28;20100;-73
2021/12/21 10:09:05;;;;;;;46.05;30.75;;;-0.90;99.90;;;;;;4986114;28;20088;-73
2021/12/21 10:11:42;;;;;;;50.97;31.63;;;-0.80;99.90;;;;;;4992808;28;20100;-73
2021/12/21 10:14:08;;;;;;;53.25;34.30;;;-0.80;99.90;;;;;;4988362;28;20077;-73
2021/12/21 10:16:33;;;;;;;58.47;34.60;;;-0.70;99.90;;;;;;4988802;28;20058;-73
2021/12/21 10:18:59;;;;;;;58.25;36.05;;;-0.60;99.90;;;;;;4987429;28;20455;-72
2021/12/21 10:21:25;;;;;;;66.55;39.95;;;-0.50;99.90;;;;;;4983836;28;20643;-73
2021/12/21 10:23:51;;;;;;;59.30;37.47;;;-0.40;99.90;;;;;;4985247;28;20070;-73
2021/12/21 10:26:24;;;;;;;61.17;37.72;;;-0.30;99.90;;;;;;4973155;28;20046;-73
2021/12/21 10:29:01;;;;;;;58.17;38.90;;;-0.20;99.90;;;;;;5011681;28;20042;-73
2021/12/21 10:31:27;;;;;;;68.00;40.03;;;-0.10;99.90;;;;;;5003981;28;20054;-73
2021/12/21 10:33:56;;;;;;;58.50;38.92;;;0.00;99.90;;;;;;4972184;28;20056;-73
2021/12/21 10:36:25;;;;;;;59.50;39.83;;;0.10;99.90;;;;;;4985788;28;20057;-73
2021/12/21 10:38:55;;;;;;;54.88;37.97;;;0.20;99.90;;;;;;4985729;28;20188;-73
2021/12/21 10:41:33;;;;;;;59.60;37.55;;;0.30;99.90;;;;;;4982565;28;20030;-74
2021/12/21 10:43:59;;;;;;;51.65;36.17;;;0.40;99.90;;;;;;4969401;28;20489;-73
2021/12/21 10:46:30;;;;;;;58.90;35.85;;;0.50;99.90;;;;;;4990220;28;20038;-74
2021/12/21 10:49:05;;;;;;;54.00;37.10;;;0.50;99.90;;;;;;4989223;28;20420;-74
2021/12/21 10:51:31;;;;;;;53.63;36.40;;;0.60;99.90;;;;;;4991367;28;20038;-74
2021/12/21 10:53:57;;;;;;;58.60;36.38;;;0.70;99.90;;;;;;4991602;28;20046;-74
2021/12/21 10:56:22;;;;;;;48.97;32.72;;;0.70;99.90;;;;;;4992887;28;20042;-74
2021/12/21 10:58:48;;;;;;;52.85;34.95;;;0.80;99.90;;;;;;4977532;28;20050;-74
2021/12/21 11:01:20;;;;;;;46.13;33.63;;;0.80;99.90;;;;;;4994377;28;20038;-74
2021/12/21 11:03:53;;;;;;;45.90;34.60;;;0.90;99.90;;;;;;4992619;28;20054;-73
2021/12/21 11:06:26;;;;;;;52.25;34.92;;;1.00;99.90;;;;;;5008548;28;20192;-74
2021/12/21 11:08:55;;;;;;;46.88;34.50;;;1.00;99.90;;;;;;4985715;28;20092;-74
2021/12/21 11:11:33;;;;;;;48.53;35.13;;;1.10;99.90;;;;;;4993724;28;20456;-74
2021/12/21 11:14:12;;;;;;;52.38;35.63;;;1.20;99.90;;;;;;4998330;28;20073;-74
2021/12/21 11:16:47;;;;;;;42.38;31.65;;;1.30;99.90;;;;;;4987829;28;20708;-74
2021/12/21 11:19:15;;;;;;;50.28;31.00;;;1.30;99.90;;;;;;4991808;28;20038;-74
2021/12/21 11:21:43;;;;;;;45.25;31.95;;;1.40;99.90;;;;;;4991999;28;20493;-74
2021/12/21 11:24:18;;;;;;;47.30;32.72;;;1.50;99.90;;;;;;4977230;28;20129;-74
2021/12/21 11:26:46;;;;;;;46.72;29.08;;;1.70;99.90;;;;;;4989405;28;20046;-75
2021/12/21 11:29:16;;;;;;;42.83;28.30;;;1.80;99.90;;;;;;4987008;28;20034;-75
2021/12/21 11:31:44;;;;;;;37.63;26.52;;;1.90;99.90;;;;;;4986415;28;20046;-75
2021/12/21 11:34:15;;;;;;;44.78;28.88;;;2.10;99.90;;;;;;4988195;28;20033;-75
2021/12/21 11:39:35;;;;;;;35.95;26.23;;;2.40;99.90;;;;;;4991830;28;20065;-74
2021/12/21 11:42:02;;;;;;;43.70;26.60;;;2.50;99.90;;;;;;4992207;28;20444;-74
2021/12/21 11:44:52;;;;;;;41.00;26.92;;;2.70;99.90;;;;;;4991605;28;20034;-73
2021/12/21 11:47:31;;;;;;;34.92;23.77;;;2.90;99.90;;;;;;4975542;28;20043;-75
2021/12/21 11:50:05;;;;;;;30.80;20.98;;;3.10;99.90;;;;;;4990083;28;20404;-75
2021/12/21 11:52:45;;;;;;;28.40;19.63;;;3.20;99.90;;;;;;4989176;28;20392;-75
2021/12/21 11:55:12;;;;;;;34.42;20.95;;;3.30;99.90;;;;;;4985859;28;20035;-75
2021/12/21 11:57:48;;;;;;;30.27;18.50;;;3.30;99.90;;;;;;4981115;28;20058;-75
2021/12/21 12:00:17;;;;;;;32.10;19.20;;;3.40;99.90;;;;;;4985616;28;20520;-74
2021/12/21 12:02:46;;;;;;;31.90;20.70;;;3.50;99.90;;;;;;4977377;28;20093;-74
2021/12/21 12:05:28;;;;;;;30.35;20.40;;;3.60;99.90;;;;;;4979144;28;20484;-74
2021/12/21 12:08:06;;;;;;;26.23;18.08;;;3.70;99.90;;;;;;4979503;28;20520;-74
2021/12/21 12:10:38;;;;;;;27.73;17.67;;;3.90;99.90;;;;;;4999714;28;20515;-75
2021/12/21 12:13:29;;;;;;;28.02;17.88;;;3.90;99.90;;;;;;4982500;28;20485;-75
2021/12/21 12:16:00;;;;;;;36.97;22.13;;;4.10;99.90;;;;;;4986562;28;20133;-74
2021/12/21 12:18:43;;;;;;;31.58;20.60;;;4.40;99.90;;;;;;4987013;28;20161;-74
2021/12/21 12:21:18;;;;;;;;;;;4.90;99.90;;;;;;4980517;28;20046;-74
2021/12/21 12:23:56;;;;;;;30.95;18.00;;;5.30;99.90;;;;;;4960668;28;20376;-75
2021/12/21 12:26:38;;;;;;;26.10;15.82;;;5.60;99.90;;;;;;4988016;28;20869;-75
2021/12/21 12:29:12;;;;;;;27.20;16.73;;;5.80;99.90;;;;;;4974493;28;20045;-75
2021/12/21 12:31:42;;;;;;;24.35;15.70;;;6.10;99.90;;;;;;4972197;28;20509;-75
2021/12/21 12:34:08;;;;;;;24.17;16.63;;;6.20;99.90;;;;;;4988979;28;20042;-75
2021/12/21 12:36:39;;;;;;;25.35;15.25;;;6.40;99.90;;;;;;4988010;28;20034;-74
2021/12/21 12:39:07;;;;;;;21.55;14.10;;;6.70;99.90;;;;;;5003965;28;20042;-75
2021/12/21 12:41:43;;;;;;;22.75;14.18;;;6.70;99.90;;;;;;4989524;28;20053;-74
2021/12/21 12:44:20;;;;;;;28.15;15.10;;;6.70;99.90;;;;;;4987390;28;20027;-74
2021/12/21 12:46:53;;;;;;;22.92;13.63;;;6.50;99.90;;;;;;4985106;28;20041;-74
2021/12/21 12:49:24;;;;;;;20.85;14.50;;;6.50;99.90;;;;;;4989315;28;20037;-74
2021/12/21 12:51:50;;;;;;;20.58;14.00;;;6.40;99.90;;;;;;4989532;28;20077;-74
2021/12/21 12:54:25;;;;;;;29.67;14.13;;;6.50;99.90;;;;;;4990860;28;20061;-74
2021/12/21 12:56:51;;;;;;;23.67;13.85;;;6.70;99.90;;;;;;4987110;28;20038;-74
2021/12/21 12:59:17;;;;;;;19.58;12.45;;;6.80;99.90;;;;;;4973836;28;20042;-74
2021/12/21 13:01:48;;;;;;;20.70;11.75;;;7.00;99.90;;;;;;4994388;28;20073;-74
2021/12/21 13:04:16;;;;;;;22.65;12.02;;;7.10;99.90;;;;;;4988005;28;20545;-74
2021/12/21 13:06:46;;;;;;;17.80;11.27;;;7.10;99.90;;;;;;4975104;28;20046;-74
2021/12/21 13:09:18;;;;;;;17.48;11.13;;;7.30;99.90;;;;;;4973638;28;20462;-75
2021/12/21 13:11:44;;;;;;;20.08;11.40;;;7.50;99.90;;;;;;4988841;28;20096;-75
2021/12/21 13:14:11;;;;;;;17.67;11.20;;;7.70;97.80;;;;;;4986576;28;20030;-74
2021/12/21 13:16:38;;;;;;;17.90;11.07;;;7.80;97.20;;;;;;4984387;28;20058;-75
2021/12/21 13:19:12;;;;;;;19.23;11.02;;;8.30;96.70;;;;;;4984243;28;20034;-74
2021/12/21 13:22:03;;;;;;;17.48;10.02;;;8.90;95.40;;;;;;5002981;28;20034;-75
2021/12/21 13:24:33;;;;;;;14.77;10.48;;;9.50;91.20;;;;;;4971271;28;20781;-75
2021/12/21 13:27:03;;;;;;;17.55;10.77;;;9.90;89.10;;;;;;4987576;28;20056;-74
2021/12/21 13:29:34;;;;;;;21.25;11.95;;;10.10;85.10;;;;;;4989482;28;20053;-74
2021/12/21 13:32:05;;;;;;;21.77;12.60;;;10.10;82.60;;;;;;4989424;28;20044;-74
2021/12/21 13:34:31;;;;;;;21.35;12.55;;;9.70;84.20;;;;;;4987961;28;20049;-74
2021/12/21 13:37:00;;;;;;;23.50;12.23;;;9.70;85.70;;;;;;4990401;28;20042;-74
2021/12/21 13:39:28;;;;;;;19.65;11.52;;;9.90;82.30;;;;;;4989036;28;20046;-74
2021/12/21 13:41:56;;;;;;;26.25;12.07;;;9.90;82.30;;;;;;4987209;28;20054;-74
2021/12/21 13:44:24;;;;;;;17.90;11.65;;;9.80;81.50;;;;;;4990607;28;20049;-74
2021/12/21 13:46:50;;;;;;;19.38;11.65;;;9.50;83.20;;;;;;4990422;28;20038;-74
2021/12/21 13:49:16;;;;;;;17.73;10.65;;;9.40;83.70;;;;;;4990890;28;20038;-74
2021/12/21 13:51:53;;;;;;;18.77;10.82;;;9.20;84.40;;;;;;5004551;28;20038;-74
2021/12/21 13:54:20;;;;;;;20.20;11.52;;;9.10;83.50;;;;;;4989708;28;20046;-74